Time;durP1;ratioP1;P1;durP2;ratioP2;P2;SDS_P1;SDS_P2;PMS_P1;PMS_P2;Temp;Humidity;BMP_temperature;BMP_pressure;BME280_temperature;BME280_humidity;BME280_pressure;Samples;Min_cycle;Max_cycle;Signal;HPM_P1;HPM_P2
2021/01/27 00:02:17;;;;;;;44.67;27.63;;;;;;;2.12;100.00;100312.22;4978560;28;20202;-29
2021/01/27 00:05:09;;;;;;;41.27;28.43;;;;;;;2.37;100.00;100312.88;4978274;28;20199;-29
2021/01/27 00:07:56;;;;;;;42.37;28.23;;;;;;;2.32;100.00;100314.44;4978743;28;20299;-29
2021/01/27 00:10:42;;;;;;;42.90;25.57;;;;;;;2.38;100.00;100313.75;4978231;28;20541;-29
2021/01/27 00:13:29;;;;;;;38.53;25.37;;;;;;;2.34;100.00;100312.81;4978580;28;20198;-29
2021/01/27 00:16:15;;;;;;;45.13;27.90;;;;;;;2.56;100.00;100318.44;4978362;28;20270;-29
2021/01/27 00:19:03;;;;;;;45.47;27.70;;;;;;;2.56;100.00;100308.22;4978672;28;20203;-30
2021/01/27 00:21:50;;;;;;;42.70;26.13;;;;;;;2.49;100.00;100308.91;4978724;28;20219;-29
2021/01/27 00:24:37;;;;;;;41.90;25.70;;;;;;;2.42;100.00;100310.41;4978243;28;20258;-29
2021/01/27 00:27:24;;;;;;;45.20;27.73;;;;;;;2.36;100.00;100307.75;4978659;28;20299;-29
2021/01/27 00:30:12;;;;;;;42.10;25.90;;;;;;;2.42;100.00;100306.19;4978494;28;20208;-29
2021/01/27 00:32:59;;;;;;;37.23;25.67;;;;;;;2.46;100.00;100296.91;4978677;28;20258;-29
2021/01/27 00:35:51;;;;;;;33.93;23.13;;;;;;;2.32;100.00;100288.06;4979051;28;20640;-29
2021/01/27 00:38:37;;;;;;;38.03;24.97;;;;;;;2.36;100.00;100280.53;4978449;28;20710;-29
2021/01/27 00:41:23;;;;;;;35.17;23.33;;;;;;;2.37;100.00;100277.16;4978309;28;20199;-30
2021/01/27 00:44:09;;;;;;;33.97;22.20;;;;;;;2.28;100.00;100287.13;4978420;28;20204;-30
2021/01/27 00:46:55;;;;;;;37.80;21.90;;;;;;;2.42;100.00;100275.56;4978224;28;20282;-29
2021/01/27 00:49:42;;;;;;;35.97;23.57;;;;;;;2.49;100.00;100274.03;4978368;28;20310;-29
2021/01/27 00:52:29;;;;;;;35.90;22.40;;;;;;;2.44;100.00;100278.16;4977493;28;20354;-29
2021/01/27 00:55:18;;;;;;;32.97;22.30;;;;;;;2.48;100.00;100274.84;4978548;28;20239;-29
2021/01/27 00:58:06;;;;;;;33.97;21.67;;;;;;;2.52;100.00;100279.19;4978700;28;20199;-29
2021/01/27 01:00:53;;;;;;;31.90;21.80;;;;;;;2.59;100.00;100293.84;4977797;28;20199;-31
2021/01/27 01:03:42;;;;;;;32.57;22.20;;;;;;;2.44;100.00;100283.25;4978087;28;20199;-31
2021/01/27 01:06:28;;;;;;;29.57;20.90;;;;;;;2.45;100.00;100274.75;4978668;28;20532;-29
2021/01/27 01:09:15;;;;;;;32.30;22.20;;;;;;;2.32;100.00;100271.06;4977678;28;20234;-29
2021/01/27 01:12:02;;;;;;;32.70;21.17;;;;;;;2.51;100.00;100271.50;4977783;28;20327;-29
2021/01/27 01:14:48;;;;;;;32.53;20.47;;;;;;;2.33;100.00;100267.69;4978608;28;20436;-29
2021/01/27 01:17:34;;;;;;;28.97;20.40;;;;;;;2.41;100.00;100260.19;4978553;28;20199;-29
2021/01/27 01:20:22;;;;;;;31.53;21.77;;;;;;;2.43;100.00;100250.88;4978470;28;20353;-29
2021/01/27 01:23:11;;;;;;;32.03;21.53;;;;;;;2.47;100.00;100262.03;4978730;28;20604;-29
2021/01/27 01:26:01;;;;;;;27.23;19.07;;;;;;;2.51;100.00;100263.84;4982231;28;20673;-31
2021/01/27 01:28:48;;;;;;;33.67;20.43;;;;;;;2.45;100.00;100268.78;4981632;28;20616;-29
2021/01/27 01:31:34;;;;;;;30.17;19.77;;;;;;;2.43;100.00;100264.50;4980534;28;20207;-29
2021/01/27 01:34:22;;;;;;;30.93;20.50;;;;;;;2.68;100.00;100258.28;4981624;28;20286;-29
2021/01/27 01:37:08;;;;;;;28.47;20.60;;;;;;;2.60;100.00;100258.97;4981054;28;20309;-29
2021/01/27 01:39:54;;;;;;;25.57;18.67;;;;;;;2.38;100.00;100248.25;4981057;28;20198;-29
2021/01/27 01:42:42;;;;;;;32.03;19.13;;;;;;;2.44;100.00;100244.97;4981136;28;20231;-29
2021/01/27 01:45:31;;;;;;;28.27;18.07;;;;;;;2.57;100.00;100248.69;4982417;28;20207;-29
2021/01/27 01:48:33;;;;;;;23.93;17.17;;;;;;;2.54;100.00;100243.50;4981086;28;20207;-29
2021/01/27 01:51:24;;;;;;;27.80;17.00;;;;;;;2.57;100.00;100238.47;4980739;28;20215;-30
2021/01/27 01:54:18;;;;;;;23.13;15.67;;;;;;;2.52;100.00;100247.72;4981562;28;20282;-29
2021/01/27 01:57:09;;;;;;;24.03;16.93;;;;;;;2.55;100.00;100235.00;4980172;28;20328;-29
2021/01/27 02:00:00;;;;;;;21.57;15.43;;;;;;;2.57;100.00;100226.56;4980520;28;20207;-29
2021/01/27 02:02:47;;;;;;;19.40;14.37;;;;;;;2.30;100.00;100226.78;4981278;28;20354;-29
2021/01/27 02:05:33;;;;;;;21.07;14.50;;;;;;;2.67;100.00;100228.47;4981098;28;20275;-30
2021/01/27 02:08:20;;;;;;;19.43;13.97;;;;;;;2.54;100.00;100228.19;4980645;28;20274;-30
2021/01/27 02:11:06;;;;;;;21.63;15.00;;;;;;;2.51;100.00;100223.88;4979869;28;20259;-29
2021/01/27 02:14:06;;;;;;;18.97;13.70;;;;;;;2.67;100.00;100227.63;4980555;28;20207;-29
2021/01/27 02:17:01;;;;;;;18.17;13.13;;;;;;;2.75;100.00;100224.41;4980267;28;20318;-29
2021/01/27 02:20:34;;;;;;;19.17;12.67;;;;;;;2.64;100.00;100220.75;4980347;28;20211;-29
2021/01/27 02:24:06;;;;;;;17.70;12.57;;;;;;;2.50;100.00;100218.72;4980316;28;20199;-29
2021/01/27 02:27:03;;;;;;;21.07;13.17;;;;;;;2.45;100.00;100210.94;4980614;28;20262;-29
2021/01/27 02:30:12;;;;;;;16.80;11.60;;;;;;;2.49;100.00;100220.41;4979767;28;20203;-29
2021/01/27 02:33:22;;;;;;;19.90;11.30;;;;;;;2.57;100.00;100221.47;4980274;28;20200;-29
2021/01/27 02:36:14;;;;;;;16.43;11.00;;;;;;;2.59;100.00;100218.94;4980004;28;20227;-29
2021/01/27 02:39:06;;;;;;;16.70;11.00;;;;;;;2.49;100.00;100214.44;4980274;28;20208;-29
2021/01/27 02:42:02;;;;;;;14.53;10.27;;;;;;;2.45;100.00;100202.44;4980446;28;20269;-29
2021/01/27 02:44:57;;;;;;;14.27;11.53;;;;;;;2.48;100.00;100193.16;4980016;28;20207;-29
2021/01/27 02:47:51;;;;;;;18.10;10.97;;;;;;;2.40;100.00;100189.56;4979708;28;20199;-29
2021/01/27 02:50:41;;;;;;;15.70;9.57;;;;;;;2.33;100.00;100173.25;4980024;28;20195;-29
2021/01/27 02:53:33;;;;;;;14.77;11.57;;;;;;;2.48;100.00;100174.44;4979796;28;20207;-29
2021/01/27 02:56:26;;;;;;;13.23;9.87;;;;;;;2.53;100.00;100178.81;4980007;28;20325;-29
2021/01/27 02:59:18;;;;;;;13.50;9.00;;;;;;;2.45;100.00;100169.25;4980257;28;20202;-29
2021/01/27 03:02:09;;;;;;;15.97;9.57;;;;;;;2.51;100.00;100166.84;4979643;28;20339;-29
2021/01/27 03:05:05;;;;;;;13.17;9.23;;;;;;;2.45;100.00;100166.69;4979986;28;20199;-30
2021/01/27 03:08:01;;;;;;;10.13;8.53;;;;;;;2.49;100.00;100165.94;4979858;28;20228;-29
2021/01/27 03:11:02;;;;;;;9.47;7.93;;;;;;;2.49;100.00;100166.81;4979487;28;20623;-29
2021/01/27 03:13:49;;;;;;;10.27;7.83;;;;;;;2.48;100.00;100161.66;4979658;28;20301;-29
2021/01/27 03:16:39;;;;;;;13.60;7.67;;;;;;;2.46;100.00;100163.31;4980161;28;20230;-29
2021/01/27 03:19:35;;;;;;;13.63;8.27;;;;;;;2.48;100.00;100167.63;4979924;28;20207;-29
2021/01/27 03:22:26;;;;;;;13.13;7.50;;;;;;;2.56;100.00;100158.47;4979502;28;20215;-29
2021/01/27 03:25:17;;;;;;;8.93;6.27;;;;;;;2.38;100.00;100150.41;4979094;28;20262;-29
2021/01/27 03:28:10;;;;;;;8.00;6.70;;;;;;;2.45;100.00;100152.25;4979414;28;20258;-29
2021/01/27 03:30:57;;;;;;;6.67;5.97;;;;;;;2.37;100.00;100153.78;4979063;28;20259;-29
2021/01/27 03:33:48;;;;;;;11.60;6.77;;;;;;;2.31;100.00;100149.41;4979043;28;20203;-29
2021/01/27 03:36:41;;;;;;;9.63;7.10;;;;;;;2.34;100.00;100144.38;4979056;28;20230;-29
2021/01/27 03:39:34;;;;;;;6.77;6.03;;;;;;;2.38;100.00;100138.50;4979733;28;20211;-29
2021/01/27 03:42:28;;;;;;;7.63;5.63;;;;;;;2.41;100.00;100138.53;4979118;28;20488;-29
2021/01/27 03:45:21;;;;;;;7.77;5.40;;;;;;;2.26;100.00;100135.66;4978887;28;20204;-29
2021/01/27 03:48:12;;;;;;;7.00;6.30;;;;;;;2.29;100.00;100129.78;4978614;28;20210;-30
2021/01/27 03:51:02;;;;;;;6.87;5.33;;;;;;;2.33;100.00;100126.47;4980010;28;20203;-29
2021/01/27 03:53:51;;;;;;;6.83;5.90;;;;;;;2.24;100.00;100124.56;4979058;28;20199;-31
2021/01/27 03:56:42;;;;;;;6.80;5.67;;;;;;;2.33;100.00;100126.47;4978484;28;20239;-29
2021/01/27 03:59:29;;;;;;;10.33;6.20;;;;;;;2.29;100.00;100124.66;4978978;28;20203;-29
2021/01/27 04:02:19;;;;;;;7.40;5.37;;;;;;;2.39;100.00;100122.38;4978976;28;20199;-29
2021/01/27 04:05:08;;;;;;;8.03;4.97;;;;;;;2.30;100.00;100117.06;4978876;28;20614;-29
2021/01/27 04:07:54;;;;;;;8.10;5.17;;;;;;;2.29;100.00;100120.44;4978539;28;20258;-29
2021/01/27 04:10:41;;;;;;;5.67;4.77;;;;;;;2.19;100.00;100121.06;4979244;28;20246;-29
2021/01/27 04:13:27;;;;;;;6.33;5.23;;;;;;;2.32;100.00;100114.53;4979360;28;20286;-30
2021/01/27 04:16:14;;;;;;;6.40;5.60;;;;;;;2.22;100.00;100112.59;4980072;28;20338;-30
2021/01/27 04:19:03;;;;;;;8.47;6.07;;;;;;;2.30;100.00;100109.41;4980959;28;20251;-30
2021/01/27 04:21:49;;;;;;;8.37;4.90;;;;;;;2.17;100.00;100104.84;4981287;28;20255;-29
2021/01/27 04:24:37;;;;;;;9.70;5.20;;;;;;;2.14;100.00;100101.38;4979666;28;20263;-30
2021/01/27 04:27:23;;;;;;;8.53;5.30;;;;;;;2.35;100.00;100101.84;4980166;28;20588;-30
2021/01/27 04:30:15;;;;;;;9.03;5.63;;;;;;;2.28;100.00;100095.75;4981383;28;20199;-30
2021/01/27 04:33:05;;;;;;;6.17;4.93;;;;;;;2.30;100.00;100096.63;4979847;28;20202;-30
2021/01/27 04:35:52;;;;;;;7.17;5.50;;;;;;;2.39;100.00;100093.44;4979149;28;20329;-30
2021/01/27 04:38:39;;;;;;;6.03;4.57;;;;;;;2.25;100.00;100090.56;4980858;28;20610;-30
2021/01/27 04:41:25;;;;;;;7.80;5.77;;;;;;;2.17;100.00;100084.44;4981723;28;20195;-30
2021/01/27 04:44:12;;;;;;;7.60;5.40;;;;;;;2.16;100.00;100071.66;4980401;28;20306;-30
2021/01/27 04:47:08;;;;;;;5.83;5.20;;;;;;;2.14;100.00;100078.41;4979112;28;20219;-30
2021/01/27 04:50:02;;;;;;;8.07;5.87;;;;;;;2.25;100.00;100076.94;4979912;28;20431;-30
2021/01/27 04:53:18;;;;;;;8.43;5.93;;;;;;;2.10;100.00;100068.97;4980851;28;20613;-29
2021/01/27 04:57:04;;;;;;;6.00;5.13;;;;;;;2.20;100.00;100065.81;4973253;28;20238;-30
2021/01/27 05:00:09;;;;;;;7.93;6.20;;;;;;;2.24;100.00;100065.00;4871438;29;20211;-29
2021/01/27 05:03:42;;;;;;;9.00;5.80;;;;;;;2.18;100.00;100054.69;4986487;28;20479;-30
2021/01/27 05:06:32;;;;;;;6.93;4.73;;;;;;;2.19;100.00;100047.06;4976108;28;20306;-30
2021/01/27 05:09:31;;;;;;;6.33;5.60;;;;;;;2.22;100.00;100042.00;4982412;28;20247;-31
2021/01/27 05:12:21;;;;;;;7.17;5.80;;;;;;;2.43;100.00;100052.66;4982254;28;20610;-31
2021/01/27 05:15:08;;;;;;;9.10;6.03;;;;;;;2.33;100.00;100040.56;4985416;28;20247;-30
2021/01/27 05:17:55;;;;;;;10.83;6.07;;;;;;;2.18;100.00;100032.59;4982969;28;20207;-31
2021/01/27 05:20:42;;;;;;;6.83;5.20;;;;;;;1.95;100.00;100018.50;4982531;28;20266;-31
2021/01/27 05:23:28;;;;;;;9.23;6.03;;;;;;;2.21;100.00;100019.00;4982697;28;20494;-31
2021/01/27 05:26:17;;;;;;;7.57;5.60;;;;;;;2.06;100.00;100009.34;4982924;28;20328;-31
2021/01/27 05:29:07;;;;;;;7.43;5.10;;;;;;;2.25;100.00;100011.47;4983719;28;20194;-31
2021/01/27 05:32:06;;;;;;;8.37;5.43;;;;;;;2.24;100.00;100009.75;4981802;28;20207;-31
2021/01/27 05:34:53;;;;;;;6.63;5.57;;;;;;;2.25;100.00;100008.91;4982031;28;20202;-31
2021/01/27 05:37:39;;;;;;;8.93;6.43;;;;;;;2.18;100.00;100001.97;4982762;28;20609;-31
2021/01/27 05:40:35;;;;;;;8.10;6.37;;;;;;;2.23;100.00;99999.50;4983242;28;20594;-30
2021/01/27 05:43:25;;;;;;;7.07;5.50;;;;;;;2.30;100.00;99986.91;4981253;28;20308;-30
2021/01/27 05:46:15;;;;;;;7.50;5.67;;;;;;;2.19;100.00;99996.06;4982718;28;20259;-30
2021/01/27 05:49:04;;;;;;;8.53;5.37;;;;;;;2.20;100.00;99987.53;4985787;28;20207;-30
2021/01/27 05:51:50;;;;;;;10.30;5.37;;;;;;;2.21;100.00;99979.06;4981869;28;20350;-31
2021/01/27 05:54:36;;;;;;;5.40;4.83;;;;;;;2.15;100.00;99976.41;4981546;28;20199;-30
2021/01/27 05:57:25;;;;;;;6.13;4.83;;;;;;;2.15;100.00;99976.41;4982096;28;20298;-31
2021/01/27 06:00:23;;;;;;;6.90;4.60;;;;;;;2.32;100.00;99969.06;4982849;28;20200;-30
2021/01/27 06:03:09;;;;;;;8.60;4.97;;;;;;;2.20;100.00;99969.69;4981925;28;20257;-29
2021/01/27 06:05:56;;;;;;;8.23;5.43;;;;;;;2.38;100.00;99962.41;4981507;28;20203;-29
2021/01/27 06:08:49;;;;;;;6.70;5.17;;;;;;;2.27;100.00;99968.97;4983621;28;20286;-31
2021/01/27 06:11:35;;;;;;;8.63;5.00;;;;;;;2.30;100.00;99951.19;4981943;28;20259;-31
2021/01/27 06:14:21;;;;;;;5.57;4.63;;;;;;;2.36;100.00;99953.88;4980708;28;20354;-31
2021/01/27 06:17:24;;;;;;;7.87;4.93;;;;;;;2.34;100.00;99952.09;4982157;28;20235;-31
2021/01/27 06:20:28;;;;;;;9.47;5.43;;;;;;;2.42;100.00;99943.75;4981692;28;20254;-30
2021/01/27 06:23:41;;;;;;;15.73;7.53;;;;;;;2.35;100.00;99931.72;4962002;29;20219;-31
2021/01/27 06:26:59;;;;;;;7.00;5.27;;;;;;;2.37;100.00;99926.66;4962218;29;20207;-31
2021/01/27 06:30:15;;;;;;;9.63;6.27;;;;;;;2.29;100.00;99923.94;4962767;29;20599;-30
2021/01/27 06:33:23;;;;;;;8.90;4.93;;;;;;;2.35;100.00;99921.50;4963514;29;20367;-30
2021/01/27 06:36:25;;;;;;;7.40;4.33;;;;;;;2.25;100.00;99922.16;4961265;29;20270;-31
2021/01/27 06:39:38;;;;;;;5.00;3.97;;;;;;;2.15;100.00;99917.72;4961573;29;20594;-30
2021/01/27 06:42:45;;;;;;;6.03;5.10;;;;;;;2.33;100.00;99918.06;4962494;29;20311;-29
2021/01/27 06:45:40;;;;;;;7.10;4.47;;;;;;;2.25;100.00;99919.59;4962246;29;20247;-30
2021/01/27 06:49:09;;;;;;;5.30;4.80;;;;;;;2.30;100.00;99912.91;4960522;29;20200;-29
2021/01/27 06:52:10;;;;;;;7.57;5.30;;;;;;;2.28;100.00;99914.56;4961296;29;20483;-29
2021/01/27 06:55:08;;;;;;;5.63;4.53;;;;;;;2.17;100.00;99905.88;4960994;29;20737;-29
2021/01/27 06:58:08;;;;;;;6.30;5.23;;;;;;;2.31;100.00;99888.25;4961710;29;20207;-30
2021/01/27 07:01:10;;;;;;;4.57;4.10;;;;;;;2.25;100.00;99889.00;4961584;29;20204;-30
2021/01/27 07:04:21;;;;;;;4.90;4.40;;;;;;;2.23;100.00;99888.09;4961986;29;20270;-30
2021/01/27 07:07:28;;;;;;;6.20;4.53;;;;;;;2.31;100.00;99891.66;4960518;29;20204;-30
2021/01/27 07:10:47;;;;;;;6.33;4.83;;;;;;;2.41;100.00;99879.91;4962053;29;20528;-29
2021/01/27 07:13:57;;;;;;;7.20;4.00;;;;;;;2.27;100.00;99879.69;4960082;29;20294;-30
2021/01/27 07:17:09;;;;;;;6.37;4.07;;;;;;;2.51;100.00;99880.94;4960853;29;20227;-30
2021/01/27 07:20:12;;;;;;;6.03;4.50;;;;;;;2.33;100.00;99879.78;4962226;29;20279;-30
2021/01/27 07:23:08;;;;;;;6.33;4.63;;;;;;;2.26;100.00;99872.00;4960401;29;20204;-29
2021/01/27 07:26:09;;;;;;;5.73;4.50;;;;;;;2.38;100.00;99862.03;4961455;29;20195;-29
2021/01/27 07:29:03;;;;;;;3.93;3.63;;;;;;;2.40;100.00;99856.09;4961668;29;20550;-29
2021/01/27 07:31:56;;;;;;;8.10;4.10;;;;;;;2.31;100.00;99855.94;4961406;28;20204;-30
2021/01/27 07:34:51;;;;;;;5.80;4.27;;;;;;;2.29;100.00;99849.94;4963393;29;20208;-30
2021/01/27 07:37:43;;;;;;;5.63;4.00;;;;;;;2.48;100.00;99852.81;4961491;29;20491;-30
2021/01/27 07:40:37;;;;;;;4.93;4.43;;;;;;;2.53;100.00;99858.88;4960989;29;20208;-30
2021/01/27 07:43:29;;;;;;;4.53;4.13;;;;;;;2.47;100.00;99856.19;4961466;29;20612;-30
2021/01/27 07:46:22;;;;;;;5.03;4.50;;;;;;;2.68;100.00;99854.00;4961189;29;20497;-30
2021/01/27 07:49:13;;;;;;;5.93;4.23;;;;;;;2.55;100.00;99857.19;4961680;29;20203;-30
2021/01/27 07:52:07;;;;;;;6.93;3.83;;;;;;;2.51;100.00;99856.28;4962156;29;20223;-30
2021/01/27 07:55:04;;;;;;;4.30;3.87;;;;;;;2.59;100.00;99854.72;4960557;29;20204;-30
2021/01/27 07:58:10;;;;;;;6.20;3.97;;;;;;;2.65;100.00;99853.94;4961295;29;20219;-30
2021/01/27 08:01:00;;;;;;;9.03;6.27;;;;;;;2.69;100.00;99855.72;4961214;29;20695;-30
2021/01/27 08:03:57;;;;;;;6.63;6.07;;;;;;;2.81;100.00;99858.47;4960107;29;20308;-30
2021/01/27 08:06:47;;;;;;;7.33;6.73;;;;;;;2.86;100.00;99859.41;4959703;29;20200;-30
2021/01/27 08:09:38;;;;;;;10.17;6.47;;;;;;;2.75;100.00;99861.78;4959456;29;20656;-30
2021/01/27 08:12:31;;;;;;;5.50;4.90;;;;;;;2.78;100.00;99868.66;4959827;29;20211;-30
2021/01/27 08:15:58;;;;;;;4.67;4.20;;;;;;;2.77;100.00;99864.38;4959890;29;20243;-30
2021/01/27 08:19:26;;;;;;;5.27;3.97;;;;;;;2.81;100.00;99871.22;4960064;29;20223;-30
2021/01/27 08:22:47;;;;;;;5.30;4.40;;;;;;;2.85;100.00;99862.78;4916720;29;20259;-30
2021/01/27 08:25:58;;;;;;;6.27;4.40;;;;;;;2.65;100.00;99866.72;4959956;29;20240;-30
2021/01/27 08:28:48;;;;;;;13.43;8.33;;;;;;;2.36;100.00;99858.59;4959474;29;20274;-30
2021/01/27 08:31:34;;;;;;;21.73;18.13;;;;;;;2.01;100.00;99843.47;4961838;29;20618;-30
2021/01/27 08:34:43;;;;;;;13.93;10.50;;;;;;;2.04;100.00;99837.56;4963742;28;20658;-30
2021/01/27 08:37:41;;;;;;;8.80;7.73;;;;;;;1.96;100.00;99844.25;4964725;29;20214;-30
2021/01/27 08:40:33;;;;;;;10.37;9.27;;;;;;;1.83;100.00;99842.28;4964516;29;20203;-30
2021/01/27 08:43:27;;;;;;;11.37;8.07;;;;;;;1.62;100.00;99856.31;4964420;29;20207;-30
2021/01/27 08:46:35;;;;;;;12.23;10.83;;;;;;;1.71;100.00;99859.06;4963513;29;20207;-30
2021/01/27 08:49:43;;;;;;;12.00;9.00;;;;;;;1.90;100.00;99841.56;4964387;29;20203;-30
2021/01/27 08:52:38;;;;;;;13.17;11.87;;;;;;;1.70;100.00;99839.50;4964036;29;20334;-30
2021/01/27 08:55:57;;;;;;;14.47;11.70;;;;;;;1.88;100.00;99843.22;4963605;29;20199;-30
2021/01/27 08:58:51;;;;;;;13.63;10.40;;;;;;;1.85;100.00;99836.38;4962490;29;20203;-30
2021/01/27 09:02:00;;;;;;;14.80;12.60;;;;;;;1.80;100.00;99837.13;4964181;29;20726;-29
2021/01/27 09:04:47;;;;;;;22.53;20.10;;;;;;;1.90;100.00;99833.91;4964806;29;20211;-30
2021/01/27 09:07:47;;;;;;;17.37;15.57;;;;;;;2.03;100.00;99823.97;4962888;29;20260;-30
2021/01/27 09:10:41;;;;;;;18.83;16.30;;;;;;;2.16;100.00;99831.84;4962933;29;20291;-30
2021/01/27 09:13:38;;;;;;;16.57;14.87;;;;;;;1.92;100.00;99833.13;4961643;29;20258;-30
2021/01/27 09:16:29;;;;;;;16.27;13.93;;;;;;;1.72;100.00;99830.19;4964439;29;20250;-30
2021/01/27 09:19:19;;;;;;;20.23;15.30;;;;;;;1.80;100.00;99837.13;4962072;29;20500;-30
2021/01/27 09:22:17;;;;;;;17.20;13.33;;;;;;;1.92;100.00;99834.81;4962073;29;20207;-29
2021/01/27 09:25:05;;;;;;;16.47;12.37;;;;;;;2.09;100.00;99841.06;4962554;29;20208;-30
2021/01/27 09:28:04;;;;;;;21.43;14.67;;;;;;;2.10;100.00;99830.03;4962999;29;20203;-30
2021/01/27 09:30:52;;;;;;;14.60;10.57;;;;;;;1.77;100.00;99826.88;4961327;29;20609;-30
2021/01/27 09:33:44;;;;;;;31.07;22.43;;;;;;;1.81;100.00;99828.63;4963307;29;20204;-30
2021/01/27 09:36:31;;;;;;;22.73;20.37;;;;;;;1.78;100.00;99828.59;4961135;29;20247;-30
2021/01/27 09:39:30;;;;;;;19.87;17.17;;;;;;;1.60;100.00;99829.09;4960747;29;20356;-29
2021/01/27 09:42:27;;;;;;;20.27;18.03;;;;;;;1.66;100.00;99824.97;4961644;29;20204;-30
2021/01/27 09:45:19;;;;;;;14.40;12.90;;;;;;;1.59;100.00;99825.69;4961400;28;20319;-30
2021/01/27 09:48:10;;;;;;;14.93;12.03;;;;;;;1.62;100.00;99825.72;4961354;29;20212;-29
2021/01/27 09:51:00;;;;;;;13.87;9.63;;;;;;;1.76;100.00;99835.34;4962303;29;20592;-30
2021/01/27 09:53:54;;;;;;;14.50;11.10;;;;;;;1.69;100.00;99831.81;4962482;29;20271;-29
2021/01/27 09:56:41;;;;;;;17.13;11.03;;;;;;;1.58;100.00;99836.72;4961986;29;20227;-30
2021/01/27 09:59:28;;;;;;;12.20;9.03;;;;;;;1.47;100.00;99838.16;4962155;29;20227;-29
2021/01/27 10:02:14;;;;;;;15.20;10.77;;;;;;;1.57;100.00;99840.09;4962170;29;20208;-30
2021/01/27 10:05:03;;;;;;;12.63;9.60;;;;;;;1.52;100.00;99845.91;4962351;29;20219;-41
2021/01/27 10:07:56;;;;;;;13.80;10.30;;;;;;;1.72;100.00;99840.38;4962062;29;20299;-30
2021/01/27 10:10:43;;;;;;;14.00;9.67;;;;;;;1.76;100.00;99835.34;4969870;28;20230;-30
2021/01/27 10:13:32;;;;;;;14.37;9.87;;;;;;;1.82;100.00;99830.34;4984456;28;20207;-30
2021/01/27 10:16:20;;;;;;;14.30;10.40;;;;;;;1.96;100.00;99824.69;4983499;28;20274;-30
2021/01/27 10:19:11;;;;;;;13.40;9.53;;;;;;;1.77;100.00;99821.78;4983050;28;20222;-30
2021/01/27 10:22:01;;;;;;;11.23;8.50;;;;;;;1.73;100.00;99821.72;4983191;28;20224;-31
2021/01/27 10:24:50;;;;;;;10.93;8.27;;;;;;;1.70;100.00;99826.75;4985199;28;20267;-29
2021/01/27 10:27:40;;;;;;;10.60;8.10;;;;;;;2.02;100.00;99826.47;4982861;28;20286;-31
2021/01/27 10:30:54;;;;;;;10.70;8.67;;;;;;;1.86;100.00;99827.03;4981767;28;20223;-31
2021/01/27 10:33:44;;;;;;;10.87;9.17;;;;;;;1.90;100.00;99826.28;4980858;28;20199;-30
2021/01/27 10:36:46;;;;;;;10.30;8.93;;;;;;;1.86;100.00;99819.38;4980777;28;20370;-31
2021/01/27 10:39:36;;;;;;;13.80;10.03;;;;;;;1.98;100.00;99809.44;4980658;28;20203;-31
2021/01/27 10:42:25;;;;;;;10.57;9.37;;;;;;;1.80;100.00;99811.63;4981327;28;20203;-31
2021/01/27 10:45:37;;;;;;;10.17;8.77;;;;;;;2.13;100.00;99799.50;4982630;28;20215;-31
2021/01/27 10:48:27;;;;;;;16.27;12.47;;;;;;;1.90;100.00;99788.03;4983260;28;20269;-31
2021/01/27 10:51:18;;;;;;;23.10;20.53;;;;;;;2.06;100.00;99795.09;4980794;28;20203;-30
2021/01/27 10:54:05;;;;;;;16.70;12.13;;;;;;;1.93;100.00;99798.28;4979567;28;20292;-30
2021/01/27 10:56:58;;;;;;;18.17;16.03;;;;;;;2.01;100.00;99797.56;4979985;28;20250;-30
2021/01/27 10:59:44;;;;;;;15.73;12.77;;;;;;;1.90;100.00;99803.31;4979632;28;20274;-29
2021/01/27 11:02:36;;;;;;;16.20;13.23;;;;;;;2.20;100.00;99792.81;4980829;28;20298;-30
2021/01/27 11:05:27;;;;;;;16.27;14.07;;;;;;;2.06;100.00;99800.22;4979780;28;20294;-30
2021/01/27 11:08:28;;;;;;;20.43;18.33;;;;;;;2.16;100.00;99794.44;4980118;28;20478;-30
2021/01/27 11:11:15;;;;;;;14.87;13.43;;;;;;;1.91;100.00;99795.69;4979600;28;20707;-30
2021/01/27 11:14:04;;;;;;;16.73;14.97;;;;;;;2.17;100.00;99788.50;4979686;28;20203;-30
2021/01/27 11:16:53;;;;;;;14.50;11.33;;;;;;;2.14;100.00;99792.69;4979042;28;20440;-30
2021/01/27 11:19:41;;;;;;;13.07;9.43;;;;;;;2.00;100.00;99789.88;4979658;28;21183;-30
2021/01/27 11:22:29;;;;;;;10.13;9.03;;;;;;;1.97;100.00;99784.75;4979769;28;20291;-30
2021/01/27 11:25:20;;;;;;;12.13;9.67;;;;;;;2.20;100.00;99778.34;4980256;28;20199;-30
2021/01/27 11:28:06;;;;;;;12.53;7.50;;;;;;;1.92;100.00;99771.91;4979244;28;20203;-29
2021/01/27 11:30:54;;;;;;;11.00;9.90;;;;;;;2.09;100.00;99769.66;4979255;28;20492;-30
2021/01/27 11:33:46;;;;;;;12.13;8.73;;;;;;;2.28;100.00;99765.72;4979451;28;20207;-30
2021/01/27 11:36:34;;;;;;;14.87;10.13;;;;;;;2.37;100.00;99753.97;4979668;28;20223;-30
2021/01/27 11:39:21;;;;;;;10.43;9.33;;;;;;;2.48;100.00;99758.38;4978387;28;20222;-30
2021/01/27 11:42:10;;;;;;;13.10;9.33;;;;;;;2.51;100.00;99758.44;4978619;28;20198;-30
2021/01/27 11:45:01;;;;;;;10.90;9.47;;;;;;;2.42;100.00;99754.88;4978367;28;20657;-30
2021/01/27 11:47:51;;;;;;;10.73;9.63;;;;;;;2.36;100.00;99744.59;4978859;28;20211;-30
2021/01/27 11:50:38;;;;;;;10.53;9.23;;;;;;;2.42;100.00;99739.56;4978816;28;20582;-29
2021/01/27 11:53:30;;;;;;;14.40;11.20;;;;;;;2.35;100.00;99740.34;4978785;28;20227;-30
2021/01/27 11:56:20;;;;;;;32.57;25.37;;;;;;;2.53;100.00;99738.91;4978299;28;20250;-30
2021/01/27 11:59:12;;;;;;;17.87;15.93;;;;;;;2.59;100.00;99731.34;4978714;28;20350;-30
2021/01/27 12:02:01;;;;;;;12.00;10.80;;;;;;;2.46;100.00;99726.88;4979411;28;20347;-30
2021/01/27 12:04:48;;;;;;;10.23;9.30;;;;;;;2.49;100.00;99726.91;4979383;28;20286;-30
2021/01/27 12:07:39;;;;;;;10.70;9.60;;;;;;;2.68;100.00;99718.69;4978737;28;20207;-30
2021/01/27 12:10:34;;;;;;;12.13;10.67;;;;;;;2.61;100.00;99724.53;4979240;28;20238;-30
2021/01/27 12:13:21;;;;;;;13.10;11.80;;;;;;;2.88;100.00;99724.06;4978610;28;20203;-30
2021/01/27 12:16:18;;;;;;;13.87;12.37;;;;;;;2.62;100.00;99728.81;4979487;28;20265;-30
2021/01/27 12:19:07;;;;;;;10.17;9.20;;;;;;;2.84;100.00;99725.72;4978237;28;20233;-31
2021/01/27 12:21:53;;;;;;;11.17;10.07;;;;;;;2.86;100.00;99721.47;4978116;28;20198;-30
2021/01/27 12:24:43;;;;;;;13.87;12.53;;;;;;;2.82;100.00;99716.31;4978732;28;20487;-31
2021/01/27 12:27:31;;;;;;;11.93;10.27;;;;;;;2.94;100.00;99709.69;4980655;28;20308;-31
2021/01/27 12:30:20;;;;;;;11.77;10.67;;;;;;;2.81;100.00;99706.94;4978995;28;20299;-30
2021/01/27 12:33:08;;;;;;;12.83;11.47;;;;;;;2.81;100.00;99700.13;4978803;28;20350;-30
2021/01/27 12:35:54;;;;;;;13.93;10.30;;;;;;;3.00;100.00;99698.66;4979147;28;20214;-31
2021/01/27 12:38:43;;;;;;;13.23;11.83;;;;;;;2.99;100.00;99692.72;4979938;28;20203;-38
2021/01/27 12:41:30;;;;;;;10.43;9.30;;;;;;;2.88;100.00;99695.97;4979280;28;20207;-30
2021/01/27 12:44:18;;;;;;;13.17;11.20;;;;;;;2.97;100.00;99691.84;4979744;28;20550;-30
2021/01/27 12:47:05;;;;;;;12.23;10.93;;;;;;;3.08;100.00;99695.38;4978461;28;20203;-30
2021/01/27 12:49:53;;;;;;;11.13;9.27;;;;;;;3.03;100.00;99684.22;4978875;28;20210;-31
2021/01/27 12:52:44;;;;;;;13.37;11.77;;;;;;;3.16;100.00;99674.19;4978983;28;20207;-31
2021/01/27 12:55:33;;;;;;;13.57;11.43;;;;;;;3.09;100.00;99683.47;4978525;28;20649;-31
2021/01/27 12:58:22;;;;;;;14.47;12.20;;;;;;;2.92;100.00;99677.28;4978167;28;20354;-31
2021/01/27 13:01:09;;;;;;;12.40;10.63;;;;;;;2.93;100.00;99671.34;4977596;28;20219;-31
2021/01/27 13:03:59;;;;;;;13.00;11.57;;;;;;;3.04;100.00;99672.31;4978024;28;20258;-31
2021/01/27 13:06:49;;;;;;;11.93;10.70;;;;;;;3.20;100.00;99670.81;4978990;28;20203;-30
2021/01/27 13:09:41;;;;;;;14.27;12.77;;;;;;;3.19;100.00;99669.09;4977762;28;20247;-32
2021/01/27 13:12:30;;;;;;;12.43;10.97;;;;;;;3.11;100.00;99666.44;4978810;28;20597;-31
2021/01/27 13:15:25;;;;;;;13.37;11.97;;;;;;;3.21;100.00;99664.84;4979322;28;20302;-31
2021/01/27 13:18:16;;;;;;;15.57;12.50;;;;;;;3.23;100.00;99665.72;4980193;28;20281;-31
2021/01/27 13:21:04;;;;;;;18.63;15.57;;;;;;;2.99;100.00;99669.75;4982322;28;20199;-31
2021/01/27 13:23:53;;;;;;;15.87;13.60;;;;;;;3.31;100.00;99670.09;4974195;28;20263;-30